createdAt,value
2022-11-16T00:01:24.210Z,96660.59
2022-11-16T00:06:16.107Z,96666.00
2022-11-16T00:11:09.227Z,96662.47
2022-11-16T00:16:01.212Z,96668.69
2022-11-16T00:20:52.864Z,96666.53
2022-11-16T00:25:44.931Z,96682.44
2022-11-16T00:30:37.037Z,96684.84
2022-11-16T00:35:28.830Z,96690.78
2022-11-16T00:40:22.448Z,96681.06
2022-11-16T00:45:14.333Z,96689.16
2022-11-16T00:50:06.482Z,96690.22
2022-11-16T00:54:58.516Z,96685.38
2022-11-16T00:59:50.268Z,96685.38
2022-11-16T01:04:42.226Z,96680.00
2022-11-16T01:09:34.181Z,96685.91
2022-11-16T01:14:25.918Z,96677.31
2022-11-16T01:19:17.669Z,96680.53
2022-11-16T01:24:09.560Z,96689.69
2022-11-16T01:29:01.408Z,96685.94
2022-11-16T01:33:55.011Z,96681.09
2022-11-16T01:38:47.606Z,96689.16
2022-11-16T01:44:00.129Z,96684.84
2022-11-16T01:48:58.523Z,96689.41
2022-11-16T01:53:51.193Z,96680.00
2022-11-16T01:58:43.175Z,96687.53
2022-11-16T02:03:38.315Z,96686.97
2022-11-16T02:08:54.722Z,96679.16
2022-11-16T02:13:54.316Z,96665.44
2022-11-16T02:18:58.957Z,96661.38
2022-11-16T02:24:35.353Z,96647.13
2022-11-16T02:29:37.736Z,96650.63
2022-11-16T02:34:38.124Z,96646.03
2022-11-16T02:39:32.531Z,96639.03
2022-11-16T02:44:33.165Z,96638.50
2022-11-16T02:49:28.124Z,96646.28
2022-11-16T02:54:21.888Z,96646.56
2022-11-16T02:59:17.654Z,96650.31
2022-11-16T03:04:28.547Z,96656.22
2022-11-16T03:09:31.190Z,96664.03
2022-11-16T03:14:25.529Z,96662.41
2022-11-16T03:19:23.984Z,96660.78
2022-11-16T03:24:16.236Z,96662.38
2022-11-16T03:29:16.281Z,96647.03
2022-11-16T03:34:16.337Z,96635.72
2022-11-16T03:39:16.866Z,96629.53
2022-11-16T03:44:11.108Z,96625.50
2022-11-16T03:49:02.951Z,96616.84
2022-11-16T03:53:54.679Z,96627.09
2022-11-16T03:58:46.342Z,96630.28
2022-11-16T04:03:38.026Z,96644.25
2022-11-16T04:08:48.747Z,96640.53
2022-11-16T04:13:59.185Z,96633.25
2022-11-16T04:19:09.701Z,96638.38
2022-11-16T04:24:13.565Z,96629.50
2022-11-16T04:29:05.184Z,96628.97
2022-11-16T04:34:15.628Z,96620.31
2022-11-16T04:39:07.765Z,96620.84
2022-11-16T04:43:59.431Z,96622.19
2022-11-16T04:48:50.993Z,96636.69
2022-11-16T04:53:42.635Z,96636.16
2022-11-16T04:58:34.506Z,96628.88
2022-11-16T05:03:26.424Z,96623.22
2022-11-16T05:08:18.011Z,96624.00
2022-11-16T05:13:09.604Z,96622.09
2022-11-16T05:18:01.166Z,96629.88
2022-11-16T05:22:57.008Z,96623.16
2022-11-16T05:27:48.800Z,96615.34
2022-11-16T05:32:40.458Z,96630.13
2022-11-16T05:37:32.096Z,96634.16
2022-11-16T05:42:23.880Z,96623.13
2022-11-16T05:47:15.457Z,96617.47
2022-11-16T05:52:07.061Z,96624.97
2022-11-16T05:56:58.659Z,96619.88
2022-11-16T06:01:51.499Z,96611.28
2022-11-16T06:06:43.197Z,96602.94
2022-11-16T06:11:36.481Z,96611.78
2022-11-16T06:16:28.095Z,96620.34
2022-11-16T06:21:19.788Z,96621.41
2022-11-16T06:26:11.892Z,96624.88
2022-11-16T06:31:04.373Z,96618.72
2022-11-16T06:35:56.080Z,96617.88
2022-11-16T06:40:57.497Z,96628.91
2022-11-16T06:45:54.497Z,96625.94
2022-11-16T06:50:49.040Z,96622.69
2022-11-16T06:55:40.604Z,96618.13
2022-11-16T07:00:32.637Z,96617.59
2022-11-16T07:05:24.311Z,96622.16
2022-11-16T07:10:15.965Z,96633.44
2022-11-16T07:15:08.122Z,96634.78
2022-11-16T07:19:59.804Z,96636.13
2022-11-16T07:24:51.515Z,96635.84
2022-11-16T07:29:43.222Z,96637.19
2022-11-16T07:34:34.952Z,96643.41
2022-11-16T07:39:26.829Z,96646.09
2022-11-16T07:44:18.610Z,96648.28
2022-11-16T07:49:18.371Z,96646.16
2022-11-16T07:54:16.389Z,96639.72
2022-11-16T07:59:08.621Z,96654.81
2022-11-16T08:04:03.266Z,96656.72
2022-11-16T08:08:58.303Z,96654.06
2022-11-16T08:13:51.014Z,96653.28
2022-11-16T08:18:43.692Z,96650.09
2022-11-16T08:23:36.222Z,96663.53
2022-11-16T08:28:31.424Z,96643.09
2022-11-16T08:33:25.327Z,96656.00
2022-11-16T08:38:18.999Z,96662.22
2022-11-16T08:43:11.837Z,96662.50
2022-11-16T08:48:06.014Z,96649.84
2022-11-16T08:52:58.787Z,96649.06
2022-11-16T08:57:51.343Z,96655.53
2022-11-16T09:02:44.831Z,96644.25
2022-11-16T09:07:37.133Z,96637.53
2022-11-16T09:12:28.867Z,96647.47
2022-11-16T09:17:23.293Z,96644.50
2022-11-16T09:22:15.151Z,96656.09
2022-11-16T09:27:07.558Z,96654.78
2022-11-16T09:31:59.417Z,96643.22
2022-11-16T09:36:51.265Z,96652.97
2022-11-16T09:41:58.138Z,96649.22
2022-11-16T09:46:55.903Z,96645.47
2022-11-16T09:51:52.552Z,96653.03
2022-11-16T09:56:47.312Z,96643.34
2022-11-16T10:01:42.437Z,96642.00
2022-11-16T10:06:58.706Z,96643.38
2022-11-16T10:12:13.688Z,96641.72
2022-11-16T10:17:14.893Z,96641.75
2022-11-16T10:22:25.451Z,96645.50
2022-11-16T10:27:29.240Z,96645.25
2022-11-16T10:32:28.804Z,96649.53
2022-11-16T10:37:22.716Z,96649.81
2022-11-16T10:42:24.524Z,96636.63
2022-11-16T10:47:33.421Z,96624.78
2022-11-16T10:52:26.294Z,96613.44
2022-11-16T10:57:18.627Z,96609.94
2022-11-16T11:02:25.373Z,96615.03
2022-11-16T11:07:31.049Z,96633.34
2022-11-16T11:12:40.468Z,96634.69
2022-11-16T11:17:34.159Z,96634.66
2022-11-16T11:22:26.642Z,96609.28
2022-11-16T11:27:29.046Z,96628.16
2022-11-16T11:32:24.530Z,96636.75
2022-11-16T11:37:24.799Z,96641.59
2022-11-16T11:42:16.678Z,96635.38
2022-11-16T11:47:56.269Z,96617.25
2022-11-16T11:52:38.111Z,96608.88
2022-11-16T11:57:33.311Z,96603.72
2022-11-16T12:02:56.359Z,96597.75
2022-11-16T12:08:25.448Z,96584.75
2022-11-16T12:13:23.229Z,96585.81
2022-11-16T12:18:50.172Z,96585.59
2022-11-16T12:23:50.850Z,96552.69
2022-11-16T12:28:44.923Z,96539.44
2022-11-16T12:34:04.975Z,96545.00
2022-11-16T12:38:59.523Z,96541.41
2022-11-16T12:49:37.468Z,96540.84
2022-11-16T12:54:52.481Z,96536.19
2022-11-16T13:00:00.669Z,96547.28
2022-11-16T13:04:58.575Z,96544.56
2022-11-16T13:09:59.074Z,96550.78
2022-11-16T13:14:54.700Z,96539.78
2022-11-16T13:19:58.428Z,96529.81
2022-11-16T13:24:58.757Z,96518.22
2022-11-16T13:29:56.226Z,96510.88
2022-11-16T13:34:49.303Z,96497.06
2022-11-16T13:39:59.201Z,96488.13
2022-11-16T13:44:51.827Z,96474.63
2022-11-16T13:49:54.430Z,96455.44
2022-11-16T13:54:55.491Z,96444.06
2022-11-16T13:59:50.029Z,96438.13
2022-11-16T14:04:55.947Z,96441.38
2022-11-16T14:09:49.253Z,96437.38
2022-11-16T14:15:13.533Z,96425.72
2022-11-16T14:20:06.032Z,96425.22
2022-11-16T14:25:07.523Z,96405.56
2022-11-16T14:30:02.878Z,96409.38
2022-11-16T14:34:57.184Z,96405.84
2022-11-16T14:39:58.091Z,96402.63
2022-11-16T14:44:50.727Z,96396.16
2022-11-16T14:49:45.525Z,96393.72
2022-11-16T14:55:01.956Z,96376.72
2022-11-16T15:00:19.815Z,96365.97
2022-11-16T15:05:22.968Z,96366.25
2022-11-16T15:10:17.927Z,96364.94
2022-11-16T15:15:14.797Z,96364.13
2022-11-16T15:20:13.765Z,96356.31
2022-11-16T15:25:05.928Z,96355.25
2022-11-16T15:30:01.214Z,96353.91
2022-11-16T15:34:54.591Z,96335.28
2022-11-16T15:39:46.372Z,96324.28
2022-11-16T15:44:39.322Z,96322.94
2022-11-16T15:49:38.341Z,96310.00
2022-11-16T15:54:55.061Z,96308.97
2022-11-16T15:59:49.788Z,96298.75
2022-11-16T16:04:42.131Z,96303.13
2022-11-16T16:09:39.747Z,96292.34
2022-11-16T16:14:31.798Z,96292.13
2022-11-16T16:19:44.526Z,96292.41
2022-11-16T16:24:42.523Z,96284.09
2022-11-16T16:29:34.224Z,96283.84
2022-11-16T16:34:25.845Z,96269.56
2022-11-16T16:39:17.468Z,96268.75
2022-11-16T16:44:14.888Z,96247.19
2022-11-16T16:49:08.043Z,96238.28
2022-11-16T16:53:59.959Z,96237.75
2022-11-16T16:58:51.641Z,96236.97
2022-11-16T17:03:43.257Z,96240.22
2022-11-16T17:08:36.084Z,96237.25
2022-11-16T17:13:27.683Z,96222.94
2022-11-16T17:18:19.364Z,96213.25
2022-11-16T17:23:11.018Z,96215.38
2022-11-16T17:28:02.702Z,96214.28
2022-11-16T17:32:54.441Z,96209.16
2022-11-16T17:37:50.929Z,96209.47
2022-11-16T17:42:43.189Z,96199.22
2022-11-16T17:47:35.113Z,96200.56
2022-11-16T17:52:27.083Z,96193.28
2022-11-16T17:57:18.876Z,96187.59
2022-11-16T18:02:11.748Z,96180.31
2022-11-16T18:07:03.721Z,96180.81
2022-11-16T18:11:55.662Z,96181.06
2022-11-16T18:16:48.025Z,96181.59
2022-11-16T18:21:41.211Z,96172.09
2022-11-16T18:26:32.960Z,96159.72
2022-11-16T18:31:25.066Z,96157.22
2022-11-16T18:36:18.164Z,96158.84
2022-11-16T18:41:12.607Z,96159.06
2022-11-16T18:46:05.172Z,96153.16
2022-11-16T18:51:04.564Z,96153.38
2022-11-16T18:55:58.126Z,96152.31
2022-11-16T19:00:50.484Z,96152.00
2022-11-16T19:05:42.733Z,96145.50
2022-11-16T19:10:40.582Z,96143.63
2022-11-16T19:15:33.497Z,96137.94
2022-11-16T19:20:25.186Z,96131.22
2022-11-16T19:25:16.849Z,96117.44
2022-11-16T19:30:09.152Z,96108.56
2022-11-16T19:35:01.081Z,96106.66
2022-11-16T19:39:52.811Z,96108.25
2022-11-16T19:44:44.375Z,96106.84
2022-11-16T19:49:36.128Z,96097.19
2022-11-16T19:54:27.778Z,96089.66
2022-11-16T19:59:19.370Z,96085.06
2022-11-16T20:04:10.997Z,96078.03
2022-11-16T20:09:08.891Z,96075.34
2022-11-16T20:14:03.494Z,96077.25
2022-11-16T20:18:55.732Z,96062.38
2022-11-16T20:23:47.431Z,96051.31
2022-11-16T20:28:40.780Z,96052.09
2022-11-16T20:33:34.521Z,96048.91
2022-11-16T20:38:26.251Z,96051.50
2022-11-16T20:43:17.963Z,96048.53
2022-11-16T20:48:09.599Z,96031.25
2022-11-16T20:53:01.231Z,96029.34
2022-11-16T20:57:52.995Z,96020.47
2022-11-16T21:02:44.607Z,96023.34
2022-11-16T21:07:36.300Z,96020.16
2022-11-16T21:12:46.784Z,96030.66
2022-11-16T21:17:38.421Z,96028.97
2022-11-16T21:22:32.756Z,96027.59
2022-11-16T21:27:24.626Z,96022.19
2022-11-16T21:32:16.307Z,96024.88
2022-11-16T21:37:08.242Z,96025.69
2022-11-16T21:41:59.968Z,96030.00
2022-11-16T21:46:51.679Z,96024.59
2022-11-16T21:51:43.271Z,96020.81
2022-11-16T21:56:34.918Z,96024.00
2022-11-16T22:01:46.564Z,96018.59
2022-11-16T22:06:57.241Z,96023.72
2022-11-16T22:11:49.078Z,96010.50
2022-11-16T22:16:40.731Z,96021.00
2022-11-16T22:21:32.427Z,96021.81
2022-11-16T22:26:23.994Z,96026.41
2022-11-16T22:31:15.707Z,96023.72
2022-11-16T22:36:11.854Z,96035.59
2022-11-16T22:41:04.089Z,96041.81
2022-11-16T22:46:00.272Z,96034.22
2022-11-16T22:51:01.837Z,96029.31
2022-11-16T22:55:53.516Z,96023.91
2022-11-16T23:00:45.146Z,96030.63
2022-11-16T23:05:36.723Z,96026.31
2022-11-16T23:10:29.019Z,96030.63
2022-11-16T23:15:48.807Z,96020.88
2022-11-16T23:20:59.289Z,96014.16
2022-11-16T23:26:09.977Z,96021.94
2022-11-16T23:31:01.779Z,96017.13
2022-11-16T23:35:53.342Z,96014.63
2022-11-16T23:40:45.076Z,96011.44
2022-11-16T23:45:37.086Z,96023.03
2022-11-16T23:50:28.832Z,96009.03
2022-11-16T23:55:20.803Z,95998.81
